Time;durP1;ratioP1;P1;durP2;ratioP2;P2;SDS_P1;SDS_P2;PMS_P1;PMS_P2;Temp;Humidity;BMP_temperature;BMP_pressure;BME280_temperature;BME280_humidity;BME280_pressure;Samples;Min_cycle;Max_cycle;Signal;HPM_P1;HPM_P2
2023/12/06 00:01:22;;;;;;;;;;;;;;;0.51;100.00;100985.06;5035004;28;1894;-70
2023/12/06 00:03:47;;;;;;;;;;;;;;;0.59;100.00;100981.41;5037986;28;1131;-70
2023/12/06 00:06:13;;;;;;;;;;;;;;;0.51;100.00;100976.56;5036237;28;1098;-70
2023/12/06 00:08:38;;;;;;;;;;;;;;;0.51;100.00;100979.94;5038569;28;1529;-70
2023/12/06 00:11:04;;;;;;;;;;;;;;;0.52;100.00;100981.63;5041138;28;1165;-70
2023/12/06 00:13:29;;;;;;;;;;;;;;;0.51;100.00;100984.22;5039049;28;1197;-70
2023/12/06 00:15:54;;;;;;;;;;;;;;;0.51;100.00;100979.13;5044526;28;1405;-71
2023/12/06 00:18:19;;;;;;;;;;;;;;;0.52;100.00;100980.81;5031238;28;1183;-71
2023/12/06 00:20:44;;;;;;;;;;;;;;;0.63;100.00;100993.13;5036794;28;1957;-71
2023/12/06 00:23:10;;;;;;;;;;;;;;;0.53;100.00;100988.41;5035742;28;1183;-70
2023/12/06 00:25:35;;;;;;;;;;;;;;;0.59;100.00;100996.72;5036348;28;1076;-70
2023/12/06 00:28:01;;;;;;;;;;;;;;;0.58;100.00;100995.06;5036508;28;1313;-70
2023/12/06 00:30:26;;;;;;;;;;;;;;;0.57;100.00;101003.56;5039118;28;1350;-71
2023/12/06 00:32:52;;;;;;;;;;;;;;;0.62;100.00;100996.59;5038191;28;1496;-71
2023/12/06 00:35:17;;;;;;;;;;;;;;;0.62;100.00;101001.69;5044563;28;1457;-70
2023/12/06 00:37:42;;;;;;;;;;;;;;;0.62;100.00;101006.78;5041656;28;1489;-71
2023/12/06 00:40:08;;;;;;;;;;;;;;;0.71;100.00;101006.47;5041560;28;1171;-74
2023/12/06 00:42:33;;;;;;;;;;;;;;;0.66;100.00;101013.47;5035622;28;1906;-71
2023/12/06 00:44:58;;;;;;;;;;;;;;;0.65;100.00;101006.69;5038646;28;1053;-72
2023/12/06 00:47:23;;;;;;;;;;;;;;;0.72;100.00;101019.16;5038205;28;1160;-71
2023/12/06 00:49:49;;;;;;;;;;;;;;;0.68;100.00;101016.78;5043635;28;1224;-70
2023/12/06 00:52:14;;;;;;;;;;;;;;;0.67;100.00;101015.94;5043986;28;1176;-71
2023/12/06 00:54:39;;;;;;;;;;;;;;;0.65;100.00;101017.72;5037116;28;1604;-70
2023/12/06 00:57:04;;;;;;;;;;;;;;;0.76;100.00;101030.09;5045351;28;1442;-71
2023/12/06 00:59:29;;;;;;;;;;;;;;;0.73;100.00;101020.81;5042403;28;1203;-70
2023/12/06 01:01:55;;;;;;;;;;;;;;;0.68;100.00;101021.88;5043287;28;1906;-70
2023/12/06 01:04:20;;;;;;;;;;;;;;;0.68;100.00;101029.53;5041689;28;1059;-70
2023/12/06 01:06:45;;;;;;;;;;;;;;;0.73;100.00;101030.19;5041753;28;1371;-71
2023/12/06 01:09:11;;;;;;;;;;;;;;;0.78;100.00;101038.53;5039906;28;1259;-72
2023/12/06 01:11:36;;;;;;;;;;;;;;;0.75;100.00;101038.66;5036862;28;1188;-70
2023/12/06 01:14:02;;;;;;;;;;;;;;;0.77;100.00;101041.97;5033360;28;1252;-72
2023/12/06 01:16:27;;;;;;;;;;;;;;;0.78;100.00;101039.34;5040666;28;1138;-70
2023/12/06 01:18:53;;;;;;;;;;;;;;;0.73;100.00;101042.97;5036507;28;1230;-70
2023/12/06 01:21:18;;;;;;;;;;;;;;;0.73;100.00;101045.50;5038371;28;1893;-71
2023/12/06 01:23:43;;;;;;;;;;;;;;;0.75;100.00;101053.97;5041940;28;1204;-70
2023/12/06 01:26:08;;;;;;;;;;;;;;;0.76;100.00;101055.63;5036482;28;1273;-72
2023/12/06 01:28:33;;;;;;;;;;;;;;;0.78;100.00;101053.84;5043165;28;1565;-70
2023/12/06 01:30:59;;;;;;;;;;;;;;;0.76;100.00;101055.63;5040501;28;1690;-71
2023/12/06 01:33:24;;;;;;;;;;;;;;;0.79;100.00;101065.72;5043909;28;1166;-71
2023/12/06 01:35:49;;;;;;;;;;;;;;;0.79;100.00;101066.53;5035374;28;1061;-73
2023/12/06 01:38:14;;;;;;;;;;;;;;;0.78;100.00;101066.59;5031615;28;2357;-72
2023/12/06 01:40:40;;;;;;;;;;;;;;;0.77;100.00;101070.06;5042703;28;1906;-70
2023/12/06 01:43:05;;;;;;;;;;;;;;;0.83;100.00;101064.72;5042547;28;1074;-71
2023/12/06 01:45:31;;;;;;;;;;;;;;;0.83;100.00;101072.38;5045025;28;1222;-71
2023/12/06 01:47:56;;;;;;;;;;;;;;;0.79;100.00;101081.03;5043104;28;2010;-71
2023/12/06 01:50:23;;;;;;;;;;;;;;;0.82;100.00;101075.81;5035743;28;1248;-70
2023/12/06 01:52:48;;;;;;;;;;;;;;;0.81;100.00;101086.09;5036000;28;1468;-70
2023/12/06 01:55:14;;;;;;;;;;;;;;;0.82;100.00;101080.94;5034969;28;1185;-71
2023/12/06 01:57:40;;;;;;;;;;;;;;;0.83;100.00;101087.69;5039114;28;1475;-71
2023/12/06 02:00:07;;;;;;;;;;;;;;;0.82;100.00;101085.19;5043213;28;1384;-71
2023/12/06 02:02:32;;;;;;;;;;;;;;;0.81;100.00;101094.59;5040573;28;1906;-71
2023/12/06 02:04:57;;;;;;;;;;;;;;;0.81;100.00;101089.47;5041413;28;1362;-70
2023/12/06 02:07:23;;;;;;;;;;;;;;;0.82;100.00;101091.16;5040471;28;1776;-70
2023/12/06 02:09:48;;;;;;;;;;;;;;;0.88;100.00;101095.19;5033348;28;1245;-71
2023/12/06 02:12:14;;;;;;;;;;;;;;;0.80;100.00;101092.91;5028827;28;1227;-70
2023/12/06 02:14:39;;;;;;;;;;;;;;;0.85;100.00;101091.00;5032403;28;1109;-70
2023/12/06 02:17:06;;;;;;;;;;;;;;;0.89;100.00;101092.56;5035377;28;990;-71
2023/12/06 02:19:31;;;;;;;;;;;;;;;0.93;100.00;101093.31;5038655;28;954;-70
2023/12/06 02:21:58;;;;;;;;;;;;;;;0.82;100.00;101096.25;5039093;28;1950;-72
2023/12/06 02:24:25;;;;;;;;;;;;;;;0.83;100.00;101097.91;5031877;28;898;-71
2023/12/06 02:26:52;;;;;;;;;;;;;;;0.85;100.00;101101.22;5041196;28;1118;-71
2023/12/06 02:29:18;;;;;;;;;;;;;;;0.84;100.00;101104.66;5037036;28;1074;-71
2023/12/06 02:31:43;;;;;;;;;;;;;;;0.85;100.00;101101.22;5040803;28;1135;-72
2023/12/06 02:34:11;;;;;;;;;;;;;;;0.85;100.00;101097.84;5038360;28;1322;-72
2023/12/06 02:36:39;;;;;;;;;;;;;;;0.84;100.00;101099.56;5037394;28;1182;-70
2023/12/06 02:39:05;;;;;;;;;;;;;;;0.85;100.00;101102.94;5033162;28;1566;-71
2023/12/06 02:41:31;;;;;;;;;;;;;;;0.88;100.00;101105.41;5037520;28;1985;-71
2023/12/06 02:43:56;;;;;;;;;;;;;;;0.86;100.00;101108.03;5037507;28;1200;-70
2023/12/06 02:46:22;;;;;;;;;;;;;;;0.89;100.00;101113.00;5037654;28;1177;-70
2023/12/06 02:48:47;;;;;;;;;;;;;;;0.87;100.00;101104.56;5035008;28;1097;-71
2023/12/06 02:51:12;;;;;;;;;;;;;;;0.92;100.00;101112.03;5040773;28;1162;-71
2023/12/06 02:53:37;;;;;;;;;;;;;;;0.92;100.00;101102.69;5056717;28;1335;-70
2023/12/06 02:56:03;;;;;;;;;;;;;;;0.91;100.00;101100.16;5037670;28;1107;-70
2023/12/06 02:58:28;;;;;;;;;;;;;;;0.89;100.00;101104.50;5045512;28;1391;-71
2023/12/06 03:00:53;;;;;;;;;;;;;;;0.88;100.00;101106.22;5039980;28;1901;-71
2023/12/06 03:03:18;;;;;;;;;;;;;;;0.87;100.00;101104.56;5042259;28;1148;-71
2023/12/06 03:05:43;;;;;;;;;;;;;;;0.86;100.00;101110.56;5042277;28;1146;-70
2023/12/06 03:08:14;;;;;;;;;;;;;;;0.90;100.00;101109.56;5037909;28;1134;-72
2023/12/06 03:10:39;;;;;;;;;;;;;;;0.89;100.00;101102.78;5039666;28;1294;-71
2023/12/06 03:13:04;;;;;;;;;;;;;;;0.95;100.00;101112.78;5035278;28;1353;-70
2023/12/06 03:15:29;;;;;;;;;;;;;;;1.00;100.00;101102.38;5040716;28;1121;-71
2023/12/06 03:17:54;;;;;;;;;;;;;;;0.91;100.00;101108.66;5037835;28;1433;-71
2023/12/06 03:20:20;;;;;;;;;;;;;;;0.97;100.00;101105.88;5040299;28;1008;-71
2023/12/06 03:22:45;;;;;;;;;;;;;;;0.95;100.00;101112.78;5036967;28;1886;-71
2023/12/06 03:25:10;;;;;;;;;;;;;;;0.95;100.00;101112.78;5042383;28;959;-71
2023/12/06 03:27:36;;;;;;;;;;;;;;;0.96;100.00;101119.53;5034412;28;1113;-73
2023/12/06 03:30:01;;;;;;;;;;;;;;;0.97;100.00;101121.19;5038094;28;1283;-70
2023/12/06 03:32:26;;;;;;;;;;;;;;;0.98;100.00;101128.00;5033824;28;1199;-70
2023/12/06 03:34:51;;;;;;;;;;;;;;;1.00;100.00;101123.66;5041684;28;1189;-71
2023/12/06 03:37:16;;;;;;;;;;;;;;;1.00;100.00;101121.09;5038837;28;1149;-70
2023/12/06 03:39:41;;;;;;;;;;;;;;;1.01;100.00;101122.75;5041924;28;1187;-71
2023/12/06 03:42:07;;;;;;;;;;;;;;;1.04;100.00;101127.75;5042641;28;1960;-71
2023/12/06 03:44:32;;;;;;;;;;;;;;;1.04;100.00;101127.75;5039862;28;1523;-70
2023/12/06 03:46:57;;;;;;;;;;;;;;;1.06;100.00;101133.63;5037514;28;1217;-70
2023/12/06 03:49:23;;;;;;;;;;;;;;;1.06;100.00;101135.38;5049705;28;1665;-70
2023/12/06 03:51:48;;;;;;;;;;;;;;;1.06;100.00;101133.63;5045678;28;1192;-71
2023/12/06 03:54:13;;;;;;;;;;;;;;;1.08;100.00;101138.69;5041736;28;1162;-70
2023/12/06 03:56:39;;;;;;;;;;;;;;;1.10;100.00;101141.19;5046033;28;1191;-70
2023/12/06 03:59:04;;;;;;;;;;;;;;;1.10;100.00;101136.09;5046663;28;1146;-70
2023/12/06 04:01:29;;;;;;;;;;;;;;;1.25;100.00;101135.50;5044531;28;1894;-71
2023/12/06 04:03:54;;;;;;;;;;;;;;;1.14;100.00;101142.72;5039622;28;1143;-71
2023/12/06 04:06:20;;;;;;;;;;;;;;;1.17;100.00;101143.47;5045164;28;1093;-70
2023/12/06 04:08:45;;;;;;;;;;;;;;;1.16;100.00;101146.91;5043661;28;1451;-72
2023/12/06 04:11:10;;;;;;;;;;;;;;;1.19;100.00;101148.50;5039703;28;1187;-71
2023/12/06 04:13:35;;;;;;;;;;;;;;;1.29;100.00;101147.28;5036834;28;1029;-70
2023/12/06 04:16:00;;;;;;;;;;;;;;;1.24;100.00;101150.00;5043369;28;1247;-74
2023/12/06 04:18:25;;;;;;;;;;;;;;;1.22;100.00;101148.41;5039252;28;1058;-72
2023/12/06 04:20:51;;;;;;;;;;;;;;;1.23;100.00;101157.72;5041164;28;1890;-72
2023/12/06 04:23:17;;;;;;;;;;;;;;;1.26;100.00;101157.59;5042092;28;1319;-71
2023/12/06 04:25:42;;;;;;;;;;;;;;;1.25;100.00;101155.94;5040418;28;1275;-71
2023/12/06 04:28:07;;;;;;;;;;;;;;;1.26;100.00;101162.72;5040260;28;1159;-71
2023/12/06 04:30:32;;;;;;;;;;;;;;;1.24;100.00;101159.38;5042497;28;1180;-72
2023/12/06 04:32:57;;;;;;;;;;;;;;;1.29;100.00;101165.16;5044742;28;1208;-71
2023/12/06 04:35:22;;;;;;;;;;;;;;;1.30;100.00;101165.09;5042629;28;1165;-75
2023/12/06 04:37:48;;;;;;;;;;;;;;;1.31;100.00;101163.38;5045735;28;1440;-72
2023/12/06 04:40:13;;;;;;;;;;;;;;;1.30;100.00;101159.97;5044948;28;1181;-71
2023/12/06 04:42:38;;;;;;;;;;;;;;;1.34;100.00;101165.81;5045222;28;1989;-71
2023/12/06 04:45:04;;;;;;;;;;;;;;;1.33;100.00;101169.28;5042775;28;1444;-71
2023/12/06 04:47:29;;;;;;;;;;;;;;;1.34;100.00;101170.94;5047873;28;1017;-72
2023/12/06 04:49:54;;;;;;;;;;;;;;;1.36;100.00;101173.44;5043217;28;1036;-71
2023/12/06 04:52:19;;;;;;;;;;;;;;;1.36;100.00;101174.25;5035558;28;1237;-72
2023/12/06 04:54:44;;;;;;;;;;;;;;;1.39;100.00;101174.16;5043590;28;1212;-71
2023/12/06 04:57:09;;;;;;;;;;;;;;;1.38;100.00;101175.06;5035499;28;1307;-71
2023/12/06 04:59:35;;;;;;;;;;;;;;;1.39;100.00;101184.38;5041472;28;1052;-71
2023/12/06 05:02:00;;;;;;;;;;;;;;;1.42;100.00;101194.47;5033569;28;1898;-72
2023/12/06 05:04:27;;;;;;;;;;;;;;;1.43;100.00;101185.91;5035223;28;1315;-71
2023/12/06 05:06:52;;;;;;;;;;;;;;;1.43;100.00;101191.00;5036685;28;1422;-71
2023/12/06 05:09:17;;;;;;;;;;;;;;;1.47;100.00;101182.34;5039087;28;1253;-71
2023/12/06 05:11:43;;;;;;;;;;;;;;;1.45;100.00;101181.59;5039168;28;1260;-71
2023/12/06 05:14:08;;;;;;;;;;;;;;;1.46;100.00;101190.91;5039724;28;1047;-72
2023/12/06 05:16:33;;;;;;;;;;;;;;;1.48;100.00;101189.13;5037046;28;1240;-70
2023/12/06 05:18:58;;;;;;;;;;;;;;;1.49;100.00;101184.84;5041791;28;1129;-74
2023/12/06 05:21:23;;;;;;;;;;;;;;;1.50;100.00;101189.91;5038104;28;1898;-71
2023/12/06 05:23:49;;;;;;;;;;;;;;;1.50;100.00;101189.91;5044086;28;1055;-73
2023/12/06 05:26:14;;;;;;;;;;;;;;;1.50;100.00;101201.88;5044169;28;1033;-73
2023/12/06 05:28:39;;;;;;;;;;;;;;;1.52;100.00;101200.06;5044706;28;1066;-71
2023/12/06 05:31:05;;;;;;;;;;;;;;;1.52;100.00;101195.78;5037093;28;1372;-72
2023/12/06 05:33:30;;;;;;;;;;;;;;;1.55;100.00;101205.09;5040105;28;1055;-72
2023/12/06 05:35:55;;;;;;;;;;;;;;;1.56;100.00;101202.47;5038125;28;1216;-72
2023/12/06 05:38:20;;;;;;;;;;;;;;;1.59;100.00;101202.31;5039725;28;1112;-75
2023/12/06 05:40:46;;;;;;;;;;;;;;;1.59;100.00;101202.31;5043146;28;1963;-71
2023/12/06 05:43:11;;;;;;;;;;;;;;;1.62;100.00;101195.44;5057974;28;1191;-71
2023/12/06 05:45:36;;;;;;;;;;;;;;;1.65;100.00;101200.44;5044768;28;1138;-71
2023/12/06 05:48:01;;;;;;;;;;;;;;;1.68;100.00;101202.88;5035524;28;971;-71
2023/12/06 05:50:26;;;;;;;;;;;;;;;1.68;100.00;101208.00;5038070;28;1281;-71
2023/12/06 05:52:52;;;;;;;;;;;;;;;1.67;100.00;101208.91;5044599;28;1136;-72
2023/12/06 05:55:17;;;;;;;;;;;;;;;1.71;100.00;101210.41;5040736;28;1244;-72
2023/12/06 05:57:42;;;;;;;;;;;;;;;1.73;100.00;101208.66;5040275;28;1572;-72
2023/12/06 06:00:12;;;;;;;;;;;;;;;1.74;100.00;101213.69;5042587;28;1173;-71
2023/12/06 06:02:37;;;;;;;;;;;;;;;1.79;100.00;101209.25;5038875;28;1993;-71
2023/12/06 06:05:03;;;;;;;;;;;;;;;1.83;100.00;101215.06;5036434;28;1129;-73
2023/12/06 06:07:28;;;;;;;;;;;;;;;1.82;100.00;101226.19;5045103;28;1176;-71
2023/12/06 06:09:53;;;;;;;;;;;;;;;1.83;100.00;101220.16;5037819;28;1148;-72
2023/12/06 06:12:18;;;;;;;;;;;;;;;1.84;100.00;101226.97;5036271;28;1188;-72
2023/12/06 06:14:43;;;;;;;;;;;;;;;1.91;100.00;101228.41;5040928;28;1245;-71
2023/12/06 06:17:08;;;;;;;;;;;;;;;1.89;100.00;101219.94;5042921;28;1192;-71
2023/12/06 06:19:34;;;;;;;;;;;;;;;1.91;100.00;101223.28;5036964;28;1100;-74
2023/12/06 06:21:59;;;;;;;;;;;;;;;2.09;100.00;101227.66;5045761;28;1914;-72
2023/12/06 06:24:24;;;;;;;;;;;;;;;2.07;100.00;101237.13;5042398;28;1203;-73
2023/12/06 06:26:50;;;;;;;;;;;;;;;1.99;100.00;101241.69;5041331;28;1264;-70
2023/12/06 06:29:15;;;;;;;;;;;;;;;1.99;100.00;101246.81;5040840;28;1263;-70
2023/12/06 06:31:40;;;;;;;;;;;;;;;2.02;100.00;101245.88;5043448;28;1189;-71
2023/12/06 06:34:05;;;;;;;;;;;;;;;2.00;100.00;101248.47;5043796;28;1355;-71
2023/12/06 06:36:31;;;;;;;;;;;;;;;1.98;100.00;101245.16;5048182;28;1351;-70
2023/12/06 06:38:57;;;;;;;;;;;;;;;1.99;100.00;101254.50;5047982;28;1104;-70
2023/12/06 06:41:24;;;;;;;;;;;;;;;1.99;100.00;101257.06;5044207;28;1926;-73
2023/12/06 06:43:49;;;;;;;;;;;;;;;2.00;100.00;101257.88;5040073;28;1201;-71
2023/12/06 06:46:15;;;;;;;;;;;;;;;1.99;100.00;101254.50;5048309;28;1043;-72
2023/12/06 06:48:40;;;;;;;;;;;;;;;2.03;100.00;101268.00;5039870;28;1109;-71
2023/12/06 06:51:05;;;;;;;;;;;;;;;2.01;100.00;101264.69;5042266;28;1205;-71
2023/12/06 06:53:30;;;;;;;;;;;;;;;2.02;100.00;101262.06;5041353;28;1165;-72
2023/12/06 06:55:55;;;;;;;;;;;;;;;2.02;100.00;101269.75;5043459;28;1076;-70
2023/12/06 06:58:21;;;;;;;;;;;;;;;2.04;100.00;101272.22;5037447;28;1161;-72
2023/12/06 07:00:46;;;;;;;;;;;;;;;2.03;100.00;101268.00;5037331;28;1902;-71
2023/12/06 07:03:11;;;;;;;;;;;;;;;2.04;100.00;101278.19;5035955;28;1114;-71
2023/12/06 07:05:37;;;;;;;;;;;;;;;2.04;100.00;101278.19;5035875;28;1458;-71
2023/12/06 07:08:02;;;;;;;;;;;;;;;2.06;100.00;101276.38;5033319;28;1231;-72
2023/12/06 07:10:27;;;;;;;;;;;;;;;2.05;100.00;101282.41;5041732;28;1133;-71
2023/12/06 07:12:52;;;;;;;;;;;;;;;2.06;100.00;101278.94;5038054;28;1205;-71
2023/12/06 07:15:18;;;;;;;;;;;;;;;2.05;100.00;101277.28;5041184;28;1331;-72
2023/12/06 07:17:43;;;;;;;;;;;;;;;2.06;100.00;101289.16;5049234;28;925;-71
2023/12/06 07:20:11;;;;;;;;;;;;;;;2.06;100.00;101289.16;5045161;28;1146;-72
2023/12/06 07:22:36;;;;;;;;;;;;;;;2.09;100.00;101283.94;5042406;28;1951;-72
2023/12/06 07:25:02;;;;;;;;;;;;;;;2.04;100.00;101285.84;5046344;28;1013;-71
2023/12/06 07:27:27;;;;;;;;;;;;;;;2.15;100.00;101293.13;5050019;28;1099;-70
2023/12/06 07:29:53;;;;;;;;;;;;;;;2.12;100.00;101299.19;5046834;28;1336;-70
2023/12/06 07:32:18;;;;;;;;;;;;;;;2.15;100.00;101287.16;5045868;28;1167;-72
2023/12/06 07:34:43;;;;;;;;;;;;;;;2.13;100.00;101295.75;5047731;28;1241;-71
2023/12/06 07:37:08;;;;;;;;;;;;;;;2.12;100.00;101294.09;5047346;28;1524;-71
2023/12/06 07:39:34;;;;;;;;;;;;;;;2.15;100.00;101297.41;5050930;28;1099;-71
2023/12/06 07:41:59;;;;;;;;;;;;;;;2.15;100.00;101307.63;5042565;28;1906;-71
2023/12/06 07:44:24;;;;;;;;;;;;;;;2.18;100.00;101307.50;5042397;28;1398;-73
2023/12/06 07:46:49;;;;;;;;;;;;;;;2.20;100.00;101310.84;5038789;28;1166;-73
2023/12/06 07:49:15;;;;;;;;;;;;;;;2.21;100.00;101312.50;5041123;28;1421;-73
2023/12/06 07:51:41;;;;;;;;;;;;;;;2.20;100.00;101318.53;5038785;28;1116;-71
2023/12/06 07:54:06;;;;;;;;;;;;;;;2.21;100.00;101325.31;5038374;28;1109;-71
2023/12/06 07:56:33;;;;;;;;;;;;;;;2.21;100.00;101328.69;5034983;28;1229;-71
2023/12/06 07:58:58;;;;;;;;;;;;;;;2.23;100.00;101326.06;5033845;28;1121;-71
2023/12/06 08:01:24;;;;;;;;;;;;;;;2.26;100.00;101331.09;5044583;28;1963;-73
2023/12/06 08:03:49;;;;;;;;;;;;;;;2.25;100.00;101324.31;5040073;28;1141;-70
2023/12/06 08:06:15;;;;;;;;;;;;;;;2.24;100.00;101333.72;5041938;28;999;-71
2023/12/06 08:08:40;;;;;;;;;;;;;;;2.27;100.00;101332.75;5047758;28;1060;-72
2023/12/06 08:11:05;;;;;;;;;;;;;;;2.27;100.00;101325.06;5038033;28;1428;-71
2023/12/06 08:13:31;;;;;;;;;;;;;;;2.28;100.00;101331.84;5034088;28;1290;-72
2023/12/06 08:15:56;;;;;;;;;;;;;;;2.28;100.00;101334.41;5038216;28;1233;-73
2023/12/06 08:18:21;;;;;;;;;;;;;;;2.28;100.00;101339.53;5041711;28;1262;-72
2023/12/06 08:20:46;;;;;;;;;;;;;;;2.27;100.00;101335.31;5041433;28;1198;-72
2023/12/06 08:23:11;;;;;;;;;;;;;;;2.29;100.00;101346.31;5037348;28;1902;-70
2023/12/06 08:25:37;;;;;;;;;;;;;;;2.30;100.00;101337.75;5035511;28;1147;-71
2023/12/06 08:28:02;;;;;;;;;;;;;;;2.31;100.00;101342.81;5046246;28;1068;-71
2023/12/06 08:30:28;;;;;;;;;;;;;;;2.33;100.00;101342.75;5049117;28;1279;-73
2023/12/06 08:32:53;;;;;;;;;;;;;;;2.32;100.00;101341.09;5041713;28;1255;-71
2023/12/06 08:35:19;;;;;;;;;;;;;;;2.40;100.00;101344.16;5036188;28;1067;-73
2023/12/06 08:37:45;;;;;;;;;;;;;;;2.37;100.00;101339.19;5044322;28;1131;-71
2023/12/06 08:40:11;;;;;;;;;;;;;;;2.36;100.00;101337.53;5041070;28;1057;-72
2023/12/06 08:42:36;;;;;;;;;;;;;;;2.35;100.00;101333.28;5036739;28;1984;-71
2023/12/06 08:45:01;;;;;;;;;;;;;;;2.36;100.00;101337.53;5035882;28;1196;-72
2023/12/06 08:47:26;;;;;;;;;;;;;;;2.36;100.00;101342.63;5044222;28;961;-71
2023/12/06 08:49:52;;;;;;;;;;;;;;;2.37;100.00;101357.09;5044170;28;978;-71
2023/12/06 08:52:17;;;;;;;;;;;;;;;2.37;100.00;101354.53;5039968;28;1205;-75
2023/12/06 08:54:42;;;;;;;;;;;;;;;2.37;100.00;101369.91;5046335;28;1016;-71
2023/12/06 08:57:07;;;;;;;;;;;;;;;2.39;100.00;101380.91;5042526;28;1143;-72
2023/12/06 08:59:32;;;;;;;;;;;;;;;2.40;100.00;101380.00;5037169;28;1104;-71
2023/12/06 09:01:57;;;;;;;;;;;;;;;2.43;100.00;101379.91;5041365;28;1886;-71
2023/12/06 09:04:23;;;;;;;;;;;;;;;2.43;100.00;101379.91;5036533;28;1044;-73
2023/12/06 09:06:48;;;;;;;;;;;;;;;2.46;100.00;101395.13;5038671;28;1114;-71
2023/12/06 09:09:17;;;;;;;;;;;;;;;2.47;100.00;101395.97;5039002;28;1505;-71
2023/12/06 09:11:42;;;;;;;;;;;;;;;2.49;100.00;101395.03;5035322;28;1138;-71
2023/12/06 09:14:07;;;;;;;;;;;;;;;2.49;100.00;101400.13;5040746;28;1017;-71
2023/12/06 09:16:33;;;;;;;;;;;;;;;2.50;100.00;101400.97;5033675;28;1165;-70
2023/12/06 09:18:58;;;;;;;;;;;;;;;2.50;100.00;101396.69;5039456;28;1269;-72
2023/12/06 09:21:25;;;;;;;;;;;;;;;2.51;100.00;101403.47;5035388;28;1964;-73
2023/12/06 09:23:50;;;;;;;;;;;;;;;2.53;100.00;101411.94;5044277;28;1005;-71
2023/12/06 09:26:16;;;;;;;;;;;;;;;2.54;100.00;101412.78;5046293;28;1174;-73
2023/12/06 09:28:41;;;;;;;;;;;;;;;2.55;100.00;101415.25;5048444;28;1427;-72
2023/12/06 09:31:06;;;;;;;;;;;;;;;2.54;100.00;101408.47;5046461;28;1160;-71
2023/12/06 09:33:31;;;;;;;;;;;;;;;2.56;100.00;101401.56;5041520;28;1159;-73
2023/12/06 09:35:56;;;;;;;;;;;;;;;2.57;100.00;101408.34;5041759;28;1220;-72
2023/12/06 09:38:22;;;;;;;;;;;;;;;2.57;100.00;101405.78;5042732;28;1236;-71
2023/12/06 09:40:47;;;;;;;;;;;;;;;2.57;100.00;101407.50;5045396;28;1054;-71
2023/12/06 09:43:13;;;;;;;;;;;;;;;2.63;100.00;101412.41;5049827;28;1965;-72
2023/12/06 09:45:38;;;;;;;;;;;;;;;2.61;100.00;101419.31;5035316;28;1077;-72
2023/12/06 09:48:04;;;;;;;;;;;;;;;2.65;100.00;101431.13;5043723;28;1122;-71
2023/12/06 09:50:29;;;;;;;;;;;;;;;2.71;100.00;101430.03;5040931;28;1143;-71
2023/12/06 09:52:55;;;;;;;;;;;;;;;2.71;100.00;101425.75;5038344;28;1110;-73
2023/12/06 09:55:23;;;;;;;;;;;;;;;2.73;100.00;101415.44;5037107;28;1150;-70
2023/12/06 09:57:53;;;;;;;;;;;;;;;2.77;100.00;101414.44;5043092;28;991;-71
2023/12/06 10:00:18;;;;;;;;;;;;;;;2.79;100.00;101422.88;5036346;28;1119;-72
2023/12/06 10:02:49;;;;;;;;;;;;;;;2.84;100.00;101431.22;5038135;28;1906;-71
2023/12/06 10:05:14;;;;;;;;;;;;;;;2.85;100.00;101432.88;5039750;28;1174;-73
2023/12/06 10:07:39;;;;;;;;;;;;;;;2.94;100.00;101437.66;5042762;28;1079;-71
2023/12/06 10:10:12;;;;;;;;;;;;;;;2.92;100.00;101436.84;5035357;28;1102;-73
2023/12/06 10:12:45;;;;;;;;;;;;;;;2.96;100.00;101435.84;5041704;28;1340;-72
2023/12/06 10:15:10;;;;;;;;;;;;;;;2.95;100.00;101441.88;5035752;28;1317;-72
2023/12/06 10:17:36;;;;;;;;;;;;;;;3.01;100.00;101449.31;5035594;28;1474;-72
2023/12/06 10:20:01;;;;;;;;;;;;;;;3.04;100.00;101444.09;5036189;28;1222;-71
2023/12/06 10:22:27;;;;;;;;;;;;;;;3.06;100.00;101447.41;5043287;28;1891;-72
2023/12/06 10:24:54;;;;;;;;;;;;;;;3.10;100.00;101446.41;5045211;28;1020;-70
2023/12/06 10:27:21;;;;;;;;;;;;;;;3.10;100.00;101448.97;5037567;28;1152;-71
2023/12/06 10:29:49;;;;;;;;;;;;;;;3.14;100.00;101442.78;5037953;28;1092;-71
2023/12/06 10:32:15;;;;;;;;;;;;;;;3.15;100.00;101434.22;5045614;28;1335;-72
2023/12/06 10:34:40;;;;;;;;;;;;;;;3.19;100.00;101438.31;5034795;28;1154;-71
2023/12/06 10:37:06;;;;;;;;;;;;;;;3.26;100.00;101438.06;5036278;28;1198;-70
2023/12/06 10:39:32;;;;;;;;;;;;;;;3.26;100.00;101435.50;5038684;28;1050;-71
2023/12/06 10:41:59;;;;;;;;;;;;;;;3.28;100.00;101438.84;5040358;28;1898;-71
2023/12/06 10:44:25;;;;;;;;;;;;;;;3.29;100.00;101437.94;5039465;28;1126;-72
2023/12/06 10:46:51;;;;;;;;;;;;;;;3.28;100.00;101443.97;5040812;28;1132;-70
2023/12/06 10:49:16;;;;;;;;;;;;;;;3.27;100.00;101444.84;5043033;28;1118;-71
2023/12/06 10:51:43;;;;;;;;;;;;;;;3.24;100.00;101447.56;5040189;28;1242;-72
2023/12/06 10:54:09;;;;;;;;;;;;;;;3.25;100.00;101441.53;5041907;28;1145;-71
2023/12/06 10:56:35;;;;;;;;;;;;;;;3.27;100.00;101444.84;5046000;28;1114;-71
2023/12/06 10:59:03;;;;;;;;;;;;;;;3.32;100.00;101442.94;5040124;28;1073;-71
2023/12/06 11:01:28;;;;;;;;;;;;;;;3.31;100.00;101436.16;5045778;28;1898;-71
2023/12/06 11:03:54;;;;;;;;;;;;;;;3.34;100.00;101451.41;5036156;28;1155;-71
2023/12/06 11:06:32;;;;;;;;;;;;;;;3.38;100.00;101442.69;5039889;28;1172;-70
2023/12/06 11:09:00;;;;;;;;;;;;;;;3.41;100.00;101447.69;5037319;28;1193;-72
2023/12/06 11:11:31;;;;;;;;;;;;;;;3.43;100.00;101435.63;5048620;28;1381;-71
2023/12/06 11:14:11;;;;;;;;;;;;;;;3.46;100.00;101430.38;5043434;28;1113;-71
2023/12/06 11:16:47;;;;;;;;;;;;;;;3.47;100.00;101429.47;5043798;28;1243;-71
2023/12/06 11:19:14;;;;;;;;;;;;;;;3.48;100.00;101433.69;5042595;28;1161;-72
2023/12/06 11:21:39;;;;;;;;;;;;;;;3.48;100.00;101433.69;5042573;28;1898;-72
2023/12/06 11:24:07;;;;;;;;;;;;;;;3.50;100.00;101426.81;5044036;28;1168;-73
2023/12/06 11:26:32;;;;;;;;;;;;;;;3.49;100.00;101435.38;5035274;28;1075;-72
2023/12/06 11:28:57;;;;;;;;;;;;;;;3.53;100.00;101434.34;5040193;28;1288;-72
2023/12/06 11:31:31;;;;;;;;;;;;;;;3.58;100.00;101434.16;5038194;28;1256;-72
2023/12/06 11:33:58;;;;;;;;;;;;;;;3.55;100.00;101429.97;5029129;28;1228;-72
2023/12/06 11:36:24;;;;;;;;;;;;;;;3.59;100.00;101436.66;5034925;28;1121;-70
2023/12/06 11:38:49;;;;;;;;;;;;;;;3.71;100.00;101441.25;5030850;28;1294;-70
2023/12/06 11:41:17;;;;;;;;;;;;;;;3.73;100.00;101444.59;5030811;28;1951;-72
2023/12/06 11:43:46;;;;;;;;;;;;;;;3.83;100.00;101441.63;5034150;28;1079;-71
2023/12/06 11:46:13;;;;;;;;;;;;;;;3.97;100.00;101436.72;5026382;28;1245;-72
2023/12/06 11:48:39;;;;;;;;;;;;;;;4.04;100.00;101429.59;5039867;28;1369;-71
2023/12/06 11:51:05;;;;;;;;;;;;;;;4.14;100.00;101431.69;5041078;28;1353;-73
2023/12/06 11:53:30;;;;;;;;;;;;;;;4.22;100.00;101437.28;5045850;28;1102;-71
2023/12/06 11:55:56;;;;;;;;;;;;;;;4.26;100.00;101427.72;5038002;28;1124;-72
2023/12/06 11:58:22;;;;;;;;;;;;;;;4.30;100.00;101438.66;5042433;28;1153;-71
2023/12/06 12:00:48;;;;;;;;;;;;;;;4.28;100.00;101445.63;5040417;28;1381;-74
2023/12/06 12:03:14;;;;;;;;;;;;;;;4.33;100.00;101435.97;5043993;28;1902;-70
2023/12/06 12:05:41;;;;;;;;;;;;;;;4.28;100.00;101445.63;5043714;28;1087;-70
2023/12/06 12:08:07;;;;;;;;;;;;;;;4.26;100.00;101443.13;5043630;28;1128;-70
2023/12/06 12:10:33;;;;;;;;;;;;;;;4.25;100.00;101441.47;5037180;28;1432;-71
2023/12/06 12:12:59;;;;;;;;;;;;;;;4.24;100.00;101445.78;5045293;28;963;-72
2023/12/06 12:15:27;;;;;;;;;;;;;;;4.23;100.00;101444.09;5046172;28;1074;-72
2023/12/06 12:17:53;;;;;;;;;;;;;;;4.22;100.00;101452.69;5044988;28;1028;-72
2023/12/06 12:20:18;;;;;;;;;;;;;;;4.19;100.00;101447.72;5038625;28;1097;-74
2023/12/06 12:22:51;;;;;;;;;;;;;;;4.25;100.00;101451.75;5045973;28;1917;-71
2023/12/06 12:25:17;;;;;;;;;;;;;;;4.22;100.00;101452.69;5043782;28;939;-70
2023/12/06 12:27:43;;;;;;;;;;;;;;;4.24;100.00;101457.75;5038669;28;1275;-71
2023/12/06 12:30:09;;;;;;;;;;;;;;;4.28;100.00;101458.47;5039200;28;1290;-71
2023/12/06 12:32:36;;;;;;;;;;;;;;;4.24;100.00;101460.31;5035087;28;1651;-73
2023/12/06 12:35:02;;;;;;;;;;;;;;;4.22;100.00;101455.25;5044284;28;1223;-72
2023/12/06 12:37:27;;;;;;;;;;;;;;;4.22;100.00;101447.56;5040576;28;1054;-73
2023/12/06 12:39:52;;;;;;;;;;;;;;;4.21;100.00;101453.59;5035547;28;1580;-71